Hanksville, UT (84734)

9:06 PM MDT en Julio 25, 2014 (GMT -0600)
Canyonlands (KCNY) Alt 4554 ft | 38.75 °N, 109.76 °W | Change Station

Current weather conditions updated 13 minutes ago

Clear
Despejado
88 ° F
Sensación térmica 88 ° F
N
20
Viento Variable Viento desde Oeste

Mañana se prevé una temperatura muy similar a la de hoy.

Hoy
Alta -- | Baja -- ° F
--% Posibilidad de precipitaciones
Ayer
Alta -- | Baja -- ° F
Precip. -- pul
6:19 AM 8:38 PM
Creciente menguante, 1% visible
Presión 29.80 pul
Visibilidad 10.0 Millas
Nubes Despejado
Punto de rocío 43 ° F
Humedad 21%
Precipitaciones 0.00 pul
Espesor de la nieve No disponible.
UV 0 de una escala de 12
Polen 6.10 de una escala de 12
Calidad del aire No disponible.
Flu Activity No disponible.
METAR KCNY 260253Z AUTO 27017KT 10SM CLR 31/06 A3001 RMK AO2 SLP089 T03110061 53006

More Conditions Fewer Conditions

Presión 29.80 pul
Visibilidad 10.0 Millas
Nubes Despejado
Punto de rocío 43 ° F
Humedad 21%
Precipitaciones 0.00 pul
Espesor de la nieve No disponible.
UV 0 de una escala de 12
Polen 6.10 de una escala de 12
Calidad del aire No disponible.
Flu Activity No disponible.
METAR KCNY 260253Z AUTO 27017KT 10SM CLR 31/06 A3001 RMK AO2 SLP089 T03110061 53006

More Conditions Fewer Conditions

10-Day Weather Forecast

Almanac

Astronomía

Jul. 25, 2014 Salida Puesta
Hora real 6:19 AM MDT 8:38 PM MDT
Crepúsculo civil 5:49 AM MDT 9:08 PM MDT
Crepúsculo náutico 5:12 AM MDT 9:45 PM MDT
Crepúsculo astronómico 4:31 AM MDT 10:26 PM MDT
Luna 5:21 AM MDT (7/25) 7:39 PM MDT (7/25)
Horas de luz 15h 19m
Horas de luz
14h 19m
Tomorrow will be 1m 40s shorter.
Creciente menguante, 1% of the Moon is Illuminated
Hoy
Creciente menguante
Jul 26
Nueva
Ago 3
Cuarto creciente
Ago 10
Luna llena
Ago 17
Cuarto menguante

Extremos de hoy

Máximos del estado Bajos del estado

Community

WunderPhotos

Upload Photos

1,737,492 ¡fotos cargadas!

Nearby

Grosos de nieve

Estación Profundido Altura
Black Flat-U.M. Creek 0 in 9400 ft
Gooseberry R.S. 0 in 7920 ft
Clayton Springs 0 in 10000 ft
Box Creek 0 in 9800 ft
Agua Canyon 3 in 8900 ft

Actividad de terremotos

Ciudad Distance Mag. Tiempo y dato
No hay informes recientes de la actividad sísmica.
Magnitud mínima muestra es 2,5.

Temperaturas de aguas costeras

Lugar Temperatura
Sin partes meteorológicos de las estaciones

Estaciones meteorológicas cercanas

Ubicación de la estación Temp. Índice de calor Punto de rocío Humedad Viento Precip. Alt Actualizado Tipo
RAWS HENRY MTN UT, Hanksville, UT 72 ° F 77 ° F 43 ° F 35% Oeste  a  7 mph 0.00 pul / hr 8293 ft 7:57 PM MDT MADIS

Show More Stations Show Fewer Stations